Time;durP1;ratioP1;P1;durP2;ratioP2;P2;SDS_P1;SDS_P2;PMS_P1;PMS_P2;Temp;Humidity;BMP_temperature;BMP_pressure;BME280_temperature;BME280_humidity;BME280_pressure;Samples;Min_cycle;Max_cycle;Signal;HPM_P1;HPM_P2
2022/12/09 00:00:15;;;;;;;43.20;19.80;;;;;;;-2.32;100.00;98784.36;101252;1355;22286;-31
2022/12/09 00:02:40;;;;;;;55.10;19.70;;;;;;;-2.24;100.00;98784.90;101964;1372;22628;-31
2022/12/09 00:05:07;;;;;;;48.10;16.40;;;;;;;-2.18;100.00;98787.68;101901;1365;22601;-31
2022/12/09 00:07:34;;;;;;;34.70;14.50;;;;;;;-2.12;100.00;98790.70;101999;1375;22615;-35
2022/12/09 00:10:00;;;;;;;30.00;12.40;;;;;;;-2.05;100.00;98794.11;101979;1375;22611;-31
2022/12/09 00:12:25;;;;;;;53.80;21.10;;;;;;;-1.91;100.00;98795.34;102022;1359;22487;-30
2022/12/09 00:14:51;;;;;;;38.10;16.80;;;;;;;-1.80;100.00;98794.38;101985;1356;22297;-35
2022/12/09 00:17:16;;;;;;;38.10;17.10;;;;;;;-1.69;100.00;98798.86;101937;1356;22857;-34
2022/12/09 00:19:42;;;;;;;41.10;18.00;;;;;;;-1.63;100.00;98800.67;102091;1365;22183;-34
2022/12/09 00:22:07;;;;;;;38.50;19.80;;;;;;;-1.58;100.00;98797.59;101915;1366;22390;-34
2022/12/09 00:24:33;;;;;;;36.10;14.20;;;;;;;-1.54;100.00;98797.06;101733;1355;22620;-34
2022/12/09 00:26:58;;;;;;;35.20;15.80;;;;;;;-1.48;100.00;98797.02;101974;1375;22796;-35
2022/12/09 00:29:26;;;;;;;35.50;17.90;;;;;;;-1.40;100.00;98796.48;102031;1374;22448;-34
2022/12/09 00:31:52;;;;;;;45.60;19.80;;;;;;;-1.32;100.00;98799.54;102042;1356;22615;-35
2022/12/09 00:34:17;;;;;;;31.10;14.40;;;;;;;-1.29;100.00;98795.23;101939;1356;22130;-35
2022/12/09 00:36:43;;;;;;;33.80;14.80;;;;;;;-1.24;100.00;98798.66;102140;1371;22687;-32
2022/12/09 00:39:10;;;;;;;32.90;14.20;;;;;;;-1.17;100.00;98798.89;101995;1359;22438;-35
2022/12/09 00:41:36;;;;;;;36.20;16.40;;;;;;;-1.12;100.00;98796.68;102111;1364;22258;-35
2022/12/09 00:44:02;;;;;;;56.20;20.30;;;;;;;-1.06;100.00;98798.96;102200;1373;22680;-35
2022/12/09 00:46:27;;;;;;;37.90;18.90;;;;;;;-1.04;100.00;98801.37;102143;1356;22245;-35
2022/12/09 00:48:53;;;;;;;49.30;19.80;;;;;;;-1.00;100.00;98800.33;102065;1355;22512;-31
2022/12/09 00:51:21;;;;;;;43.90;20.60;;;;;;;-1.00;100.00;98795.05;101986;1352;22622;-30
2022/12/09 00:53:46;;;;;;;45.90;19.40;;;;;;;-1.00;100.00;98797.69;102149;1355;22610;-35
2022/12/09 00:56:12;;;;;;;51.50;21.30;;;;;;;-0.98;100.00;98794.16;102065;1354;22442;-35
2022/12/09 00:58:39;;;;;;;41.90;18.10;;;;;;;-0.94;100.00;98795.05;102113;1356;22633;-34
2022/12/09 01:01:04;;;;;;;38.00;17.60;;;;;;;-0.95;100.00;98793.23;102069;1355;22277;-31
2022/12/09 01:03:30;;;;;;;36.00;14.70;;;;;;;-0.95;100.00;98790.92;102027;1372;22166;-35
2022/12/09 01:05:55;;;;;;;41.20;17.50;;;;;;;-0.93;100.00;98786.20;102056;1355;22594;-30
2022/12/09 01:08:21;;;;;;;45.10;19.10;;;;;;;-0.90;100.00;98787.31;102022;1354;22619;-35
2022/12/09 01:10:47;;;;;;;32.90;16.20;;;;;;;-0.92;100.00;98782.77;102109;1356;22488;-30
2022/12/09 01:13:13;;;;;;;29.50;13.90;;;;;;;-0.86;100.00;98782.77;102067;1373;22634;-35
2022/12/09 01:15:39;;;;;;;28.80;15.10;;;;;;;-0.88;100.00;98780.96;102155;1352;22382;-30
2022/12/09 01:18:05;;;;;;;40.20;19.10;;;;;;;-0.84;100.00;98776.63;102072;1353;22165;-31
2022/12/09 01:20:31;;;;;;;47.90;22.50;;;;;;;-0.81;100.00;98773.02;102172;1356;22359;-34
2022/12/09 01:22:57;;;;;;;48.70;18.40;;;;;;;-0.83;100.00;98767.37;101950;1355;22354;-31
2022/12/09 01:25:22;;;;;;;38.70;18.00;;;;;;;-0.85;100.00;98768.41;102100;1356;22640;-35
2022/12/09 01:27:48;;;;;;;45.50;18.00;;;;;;;-0.79;100.00;98766.64;102144;1346;22190;-31
2022/12/09 01:30:14;;;;;;;55.00;21.40;;;;;;;-0.80;100.00;98764.45;102182;1372;22204;-30
2022/12/09 01:32:41;;;;;;;43.50;19.30;;;;;;;-0.82;100.00;98763.42;102035;1371;22194;-35
2022/12/09 01:35:06;;;;;;;40.50;17.00;;;;;;;-0.79;100.00;98761.58;101844;1374;22607;-31
2022/12/09 01:37:33;;;;;;;43.70;18.40;;;;;;;-0.75;100.00;98759.94;102150;1373;22310;-31
2022/12/09 01:39:59;;;;;;;32.60;16.10;;;;;;;-0.76;100.00;98762.66;102105;1356;22445;-31
2022/12/09 01:42:25;;;;;;;29.40;13.20;;;;;;;-0.76;100.00;98761.55;102068;1356;22296;-31
2022/12/09 01:44:57;;;;;;;32.90;15.50;;;;;;;-0.71;100.00;98763.21;102216;1356;22609;-35
2022/12/09 01:47:22;;;;;;;28.60;12.90;;;;;;;-0.69;100.00;98759.94;102103;1356;22306;-31
2022/12/09 01:49:49;;;;;;;46.10;17.80;;;;;;;-0.67;100.00;98761.19;102043;1352;22605;-34
2022/12/09 01:52:21;;;;;;;44.80;15.90;;;;;;;-0.61;100.00;98758.64;102066;1356;22627;-31
2022/12/09 01:54:47;;;;;;;32.60;15.00;;;;;;;-0.67;100.00;98755.02;102111;1356;22589;-31
2022/12/09 01:57:13;;;;;;;28.10;14.30;;;;;;;-0.68;100.00;98751.09;102152;1371;22429;-35
2022/12/09 01:59:39;;;;;;;28.40;14.80;;;;;;;-0.65;100.00;98748.54;101958;1358;22673;-34
2022/12/09 02:02:05;;;;;;;41.20;17.00;;;;;;;-0.66;100.00;98748.41;101603;1366;22301;-34
2022/12/09 02:04:32;;;;;;;40.30;19.40;;;;;;;-0.66;100.00;98745.95;102169;1372;22255;-34
2022/12/09 02:06:58;;;;;;;26.30;12.60;;;;;;;-0.70;100.00;98744.20;102075;1356;22602;-35
2022/12/09 02:09:23;;;;;;;40.60;16.50;;;;;;;-0.70;100.00;98741.73;102147;1356;22274;-34
2022/12/09 02:11:57;;;;;;;33.40;14.90;;;;;;;-0.70;100.00;98737.52;102066;1352;22181;-34
2022/12/09 02:14:25;;;;;;;44.50;17.20;;;;;;;-0.71;100.00;98734.45;102109;1355;22436;-31
2022/12/09 02:16:58;;;;;;;28.80;14.40;;;;;;;-0.68;100.00;98732.78;102191;1355;22632;-31
2022/12/09 02:19:33;;;;;;;41.00;18.10;;;;;;;-0.68;100.00;98731.73;102131;1356;22320;-30
2022/12/09 02:21:59;;;;;;;29.00;13.20;;;;;;;-0.65;100.00;98731.39;102095;1358;22261;-35
2022/12/09 02:24:29;;;;;;;28.20;12.80;;;;;;;-0.63;100.00;98732.45;102096;1356;22203;-31
2022/12/09 02:26:59;;;;;;;46.00;19.70;;;;;;;-0.62;100.00;98729.72;102145;1356;22370;-30
2022/12/09 02:29:32;;;;;;;50.90;21.30;;;;;;;-0.62;100.00;98730.11;101991;1356;22629;-31
2022/12/09 02:32:05;;;;;;;43.30;19.70;;;;;;;-0.67;100.00;98729.70;101453;1356;22738;-34
2022/12/09 02:34:31;;;;;;;37.50;15.00;;;;;;;-0.73;100.00;98728.61;101878;1356;22577;-35
2022/12/09 02:37:04;;;;;;;85.60;35.60;;;;;;;-0.73;100.00;98726.16;102118;1352;22632;-31
2022/12/09 02:39:35;;;;;;;34.60;15.80;;;;;;;-0.81;100.00;98720.93;102130;1373;22201;-35
2022/12/09 02:42:02;;;;;;;70.00;31.20;;;;;;;-0.87;100.00;98717.44;101331;1366;23021;-30
2022/12/09 02:44:27;;;;;;;89.30;42.90;;;;;;;-0.86;100.00;98711.73;102121;1372;22645;-35
2022/12/09 02:46:53;;;;;;;57.60;27.40;;;;;;;-0.85;100.00;98716.24;102070;1356;22747;-30
2022/12/09 02:49:18;;;;;;;88.10;39.60;;;;;;;-0.89;100.00;98710.84;102059;1356;22297;-31
2022/12/09 02:51:44;;;;;;;76.40;34.50;;;;;;;-0.89;100.00;98706.20;102126;1355;22633;-31
2022/12/09 02:54:13;;;;;;;44.70;20.70;;;;;;;-0.91;100.00;98704.66;102096;1356;22264;-30
2022/12/09 02:56:40;;;;;;;42.10;18.00;;;;;;;-0.94;100.00;98706.83;102111;1356;22527;-31
2022/12/09 02:59:05;;;;;;;36.50;15.50;;;;;;;-0.97;100.00;98711.88;102083;1372;22465;-35
2022/12/09 03:01:37;;;;;;;27.60;13.30;;;;;;;-0.99;100.00;98709.02;101953;1373;22693;-34
2022/12/09 03:04:03;;;;;;;37.10;19.10;;;;;;;-0.99;100.00;98712.94;102057;1372;22322;-31
2022/12/09 03:06:33;;;;;;;41.40;18.50;;;;;;;-1.02;100.00;98710.52;102041;1352;22289;-31
2022/12/09 03:09:03;;;;;;;44.20;18.90;;;;;;;-1.01;100.00;98709.77;101768;1368;25510;-30
2022/12/09 03:11:28;;;;;;;54.80;25.70;;;;;;;-0.99;100.00;98714.71;101883;1373;22607;-30
2022/12/09 03:14:02;;;;;;;40.70;22.40;;;;;;;-0.94;100.00;98716.86;102103;1356;22367;-31
2022/12/09 03:16:32;;;;;;;39.00;20.00;;;;;;;-0.90;100.00;98718.61;102063;1352;22245;-31
2022/12/09 03:19:03;;;;;;;33.10;17.50;;;;;;;-0.87;100.00;98719.05;102058;1374;22399;-31
2022/12/09 03:21:30;;;;;;;81.20;34.80;;;;;;;-0.85;100.00;98716.09;102114;1373;22636;-31
2022/12/09 03:23:56;;;;;;;47.80;24.20;;;;;;;-0.86;100.00;98714.20;101224;1373;24327;-34
2022/12/09 03:26:23;;;;;;;54.30;22.70;;;;;;;-0.84;100.00;98708.59;101362;1359;22184;-31
2022/12/09 03:28:49;;;;;;;43.80;19.70;;;;;;;-0.86;100.00;98703.98;101978;1356;22625;-31
2022/12/09 03:31:17;;;;;;;28.10;13.70;;;;;;;-0.88;100.00;98698.71;102155;1373;22615;-34
2022/12/09 03:33:46;;;;;;;38.30;16.90;;;;;;;-0.86;100.00;98697.73;102114;1350;22622;-31
2022/12/09 03:36:12;;;;;;;25.40;12.20;;;;;;;-0.87;100.00;98694.48;102136;1356;22412;-31
2022/12/09 03:38:38;;;;;;;29.20;14.40;;;;;;;-0.90;100.00;98692.08;102068;1362;22413;-34
2022/12/09 03:41:08;;;;;;;31.80;15.00;;;;;;;-0.89;100.00;98692.36;101639;1352;22304;-31
2022/12/09 03:43:36;;;;;;;34.70;17.70;;;;;;;-0.94;100.00;98689.29;102007;1374;22577;-35
2022/12/09 03:46:02;;;;;;;34.00;16.40;;;;;;;-1.01;100.00;98695.20;101932;1366;22738;-31
2022/12/09 03:48:27;;;;;;;27.00;12.80;;;;;;;-1.01;100.00;98695.94;102053;1356;22202;-34
2022/12/09 03:50:57;;;;;;;39.10;18.60;;;;;;;-1.06;100.00;98692.96;102115;1356;22274;-31
2022/12/09 03:53:26;;;;;;;45.00;18.10;;;;;;;-1.13;100.00;98688.54;102082;1372;23005;-35
2022/12/09 03:55:56;;;;;;;32.80;16.10;;;;;;;-1.14;100.00;98691.14;101914;1356;22647;-35
2022/12/09 03:58:22;;;;;;;25.10;12.90;;;;;;;-1.14;100.00;98686.23;102123;1373;22288;-35
2022/12/09 04:00:47;;;;;;;43.70;20.70;;;;;;;-1.17;100.00;98688.59;102113;1355;22356;-32
2022/12/09 04:03:13;;;;;;;33.80;16.50;;;;;;;-1.19;100.00;98690.34;102110;1372;22312;-31
2022/12/09 04:05:39;;;;;;;16.60;10.60;;;;;;;-1.18;100.00;98694.58;101857;1373;22171;-30
2022/12/09 04:08:05;;;;;;;25.30;12.70;;;;;;;-1.21;100.00;98692.25;101998;1371;22135;-31
2022/12/09 04:10:31;;;;;;;19.50;8.80;;;;;;;-1.26;100.00;98685.73;102047;1368;22607;-35
2022/12/09 04:12:57;;;;;;;26.00;13.10;;;;;;;-1.29;100.00;98689.67;102111;1356;22377;-35
2022/12/09 04:15:22;;;;;;;26.80;11.20;;;;;;;-1.29;100.00;98690.73;102124;1356;22605;-35
2022/12/09 04:17:48;;;;;;;23.60;12.70;;;;;;;-1.33;100.00;98695.11;102144;1356;22336;-35
2022/12/09 04:20:13;;;;;;;21.90;11.90;;;;;;;-1.34;100.00;98695.24;102150;1370;22294;-30
2022/12/09 04:22:39;;;;;;;23.40;11.20;;;;;;;-1.36;100.00;98693.67;102046;1369;22456;-34
2022/12/09 04:25:05;;;;;;;31.00;15.60;;;;;;;-1.39;100.00;98695.81;102116;1357;22352;-31
2022/12/09 04:27:30;;;;;;;16.80;8.20;;;;;;;-1.44;100.00;98692.36;102082;1372;22136;-31
2022/12/09 04:29:56;;;;;;;16.60;9.80;;;;;;;-1.49;100.00;98696.88;102127;1359;22144;-35
2022/12/09 04:32:22;;;;;;;33.20;15.20;;;;;;;-1.50;100.00;98697.34;102142;1355;22545;-35
2022/12/09 04:34:48;;;;;;;26.80;11.80;;;;;;;-1.56;100.00;98701.05;102058;1356;22249;-31
2022/12/09 04:37:14;;;;;;;22.60;12.30;;;;;;;-1.58;100.00;98705.82;102115;1372;22439;-35
2022/12/09 04:39:40;;;;;;;36.60;15.90;;;;;;;-1.61;100.00;98709.95;102197;1356;22157;-35
2022/12/09 04:42:06;;;;;;;23.60;11.10;;;;;;;-1.66;100.00;98705.75;102020;1372;22252;-35
2022/12/09 04:44:31;;;;;;;31.90;14.60;;;;;;;-1.66;100.00;98710.38;102009;1356;22173;-31
2022/12/09 04:46:57;;;;;;;27.70;13.20;;;;;;;-1.65;100.00;98712.41;102153;1356;22639;-33
2022/12/09 04:49:22;;;;;;;34.90;13.60;;;;;;;-1.69;100.00;98713.42;102089;1352;22329;-35
2022/12/09 04:51:48;;;;;;;23.30;9.80;;;;;;;-1.73;100.00;98710.42;102189;1355;22560;-35
2022/12/09 04:54:13;;;;;;;33.80;15.00;;;;;;;-1.71;100.00;98709.05;101955;1352;22695;-35
2022/12/09 04:56:40;;;;;;;20.60;10.70;;;;;;;-1.73;100.00;98710.26;101911;1357;22541;-34
2022/12/09 04:59:05;;;;;;;33.80;15.20;;;;;;;-1.73;100.00;98708.36;102081;1356;22183;-31
2022/12/09 05:01:31;;;;;;;39.70;17.80;;;;;;;-1.79;100.00;98708.33;102085;1371;22160;-35
2022/12/09 05:03:57;;;;;;;46.60;20.00;;;;;;;-1.84;100.00;98705.80;102186;1356;22595;-31
2022/12/09 05:06:22;;;;;;;43.80;16.00;;;;;;;-1.94;100.00;98704.59;102045;1373;22442;-35
2022/12/09 05:08:48;;;;;;;34.00;13.80;;;;;;;-2.01;100.00;98706.58;102055;1357;22136;-35
2022/12/09 05:11:14;;;;;;;34.30;16.50;;;;;;;-2.07;100.00;98706.92;101887;1356;22625;-34
2022/12/09 05:13:39;;;;;;;40.60;18.00;;;;;;;-2.11;100.00;98709.39;101696;1373;22660;-30
2022/12/09 05:16:07;;;;;;;50.10;18.90;;;;;;;-2.18;100.00;98714.00;102132;1356;22712;-35
2022/12/09 05:18:32;;;;;;;43.70;16.40;;;;;;;-2.24;100.00;98711.02;102055;1372;22281;-35
2022/12/09 05:20:58;;;;;;;30.90;14.40;;;;;;;-2.29;100.00;98712.67;102112;1372;22189;-31
2022/12/09 05:23:24;;;;;;;80.90;30.10;;;;;;;-2.34;100.00;98710.52;102094;1356;22766;-31
2022/12/09 05:25:49;;;;;;;60.80;23.00;;;;;;;-2.40;100.00;98715.34;102062;1372;22452;-34
2022/12/09 05:28:15;;;;;;;50.80;20.70;;;;;;;-2.43;100.00;98719.67;102075;1356;24293;-34
2022/12/09 05:30:41;;;;;;;60.10;22.80;;;;;;;-2.49;100.00;98722.98;102102;1355;22531;-30
2022/12/09 05:33:06;;;;;;;46.20;20.00;;;;;;;-2.54;100.00;98724.71;102118;1356;23070;-33
2022/12/09 05:35:32;;;;;;;68.90;26.40;;;;;;;-2.63;100.00;98728.77;102089;1355;22236;-29
2022/12/09 05:37:58;;;;;;;66.70;22.90;;;;;;;-2.70;100.00;98732.15;102113;1356;22164;-34
2022/12/09 05:40:24;;;;;;;56.00;20.50;;;;;;;-2.77;100.00;98732.38;102104;1374;22265;-30
2022/12/09 05:42:49;;;;;;;48.10;20.30;;;;;;;-2.84;100.00;98730.14;102008;1350;22446;-34
2022/12/09 05:45:15;;;;;;;44.80;18.90;;;;;;;-2.89;100.00;98733.33;101511;1374;22635;-30
2022/12/09 05:47:40;;;;;;;48.90;21.30;;;;;;;-2.90;100.00;98736.41;102002;1347;22331;-30
2022/12/09 05:50:06;;;;;;;77.30;28.70;;;;;;;-2.93;100.00;98738.42;101863;1373;24256;-29
2022/12/09 05:52:33;;;;;;;57.00;24.70;;;;;;;-2.97;100.00;98738.13;101915;1363;22677;-30
2022/12/09 05:54:59;;;;;;;43.40;20.10;;;;;;;-2.99;100.00;98733.39;102166;1367;22601;-33
2022/12/09 05:57:24;;;;;;;42.70;18.30;;;;;;;-3.02;100.00;98730.82;102113;1355;22264;-34
2022/12/09 05:59:50;;;;;;;38.00;17.70;;;;;;;-3.03;100.00;98734.52;102178;1356;22359;-30
2022/12/09 06:02:16;;;;;;;35.00;17.30;;;;;;;-3.02;100.00;98743.02;102078;1355;22702;-29
2022/12/09 06:04:41;;;;;;;37.00;17.70;;;;;;;-3.04;100.00;98749.17;102121;1373;22387;-33
2022/12/09 06:07:06;;;;;;;33.80;14.70;;;;;;;-3.08;100.00;98749.16;102095;1352;22449;-34
2022/12/09 06:09:32;;;;;;;32.90;15.20;;;;;;;-3.11;100.00;98753.02;102109;1356;22612;-33
2022/12/09 06:11:58;;;;;;;26.10;12.50;;;;;;;-3.12;100.00;98751.94;102001;1372;22604;-34
2022/12/09 06:14:23;;;;;;;33.90;14.50;;;;;;;-3.13;100.00;98754.85;102121;1356;22224;-33
2022/12/09 06:16:49;;;;;;;24.50;10.90;;;;;;;-3.19;100.00;98757.02;102037;1353;22304;-34
2022/12/09 06:19:14;;;;;;;34.70;16.00;;;;;;;-3.21;100.00;98759.34;101961;1359;22445;-30
2022/12/09 06:21:40;;;;;;;29.90;14.40;;;;;;;-3.25;100.00;98763.70;102108;1373;22542;-30
2022/12/09 06:24:06;;;;;;;33.30;14.20;;;;;;;-3.26;100.00;98766.23;102098;1371;22275;-30
2022/12/09 06:26:32;;;;;;;33.50;14.10;;;;;;;-3.27;100.00;98769.06;102066;1355;22715;-29
2022/12/09 06:28:58;;;;;;;15.70;8.50;;;;;;;-3.26;100.00;98771.84;102103;1355;22275;-34
2022/12/09 06:31:24;;;;;;;32.70;12.80;;;;;;;-3.23;100.00;98767.70;102053;1372;22519;-33
2022/12/09 06:33:50;;;;;;;42.00;16.40;;;;;;;-3.19;100.00;98768.78;102161;1373;22316;-32
2022/12/09 06:36:15;;;;;;;32.30;14.60;;;;;;;-3.18;100.00;98763.92;102019;1356;22155;-29
2022/12/09 06:38:41;;;;;;;29.10;12.50;;;;;;;-3.16;100.00;98761.48;102100;1356;22205;-29
2022/12/09 06:41:08;;;;;;;21.20;10.70;;;;;;;-3.11;100.00;98766.73;102052;1368;22146;-33
2022/12/09 06:43:34;;;;;;;39.40;17.90;;;;;;;-3.11;100.00;98759.73;102084;1373;22158;-33
2022/12/09 06:46:00;;;;;;;45.30;15.50;;;;;;;-3.15;100.00;98758.45;102086;1365;22196;-33
2022/12/09 06:48:26;;;;;;;40.40;15.70;;;;;;;-3.25;100.00;98755.98;102009;1356;22361;-34
2022/12/09 06:50:51;;;;;;;55.40;22.00;;;;;;;-3.32;100.00;98758.61;102042;1356;22293;-33
2022/12/09 06:53:17;;;;;;;120.30;31.90;;;;;;;-3.37;100.00;98758.34;102036;1373;22684;-34
2022/12/09 06:55:43;;;;;;;132.50;40.80;;;;;;;-3.42;100.00;98760.52;101520;1359;22187;-30
2022/12/09 06:58:08;;;;;;;132.70;36.00;;;;;;;-3.49;100.00;98759.85;102036;1355;22595;-30
2022/12/09 07:00:34;;;;;;;103.00;36.30;;;;;;;-3.56;100.00;98756.36;101900;1373;22605;-30
2022/12/09 07:02:59;;;;;;;83.60;32.00;;;;;;;-3.60;100.00;98752.64;102044;1346;22706;-29
2022/12/09 07:05:25;;;;;;;145.40;38.10;;;;;;;-3.60;100.00;98751.45;102056;1359;22459;-33
2022/12/09 07:07:51;;;;;;;96.60;29.90;;;;;;;-3.59;100.00;98752.95;102152;1373;22237;-33
2022/12/09 07:10:17;;;;;;;125.90;39.40;;;;;;;-3.56;100.00;98752.46;102064;1372;22597;-33
2022/12/09 07:12:42;;;;;;;103.40;39.10;;;;;;;-3.49;100.00;98757.54;102078;1356;23081;-31
2022/12/09 07:15:08;;;;;;;74.80;30.90;;;;;;;-3.40;100.00;98760.33;101977;1372;22621;-29
2022/12/09 07:17:34;;;;;;;99.40;33.40;;;;;;;-3.37;100.00;98767.05;101855;1359;22269;-33
2022/12/09 07:20:00;;;;;;;29.50;14.70;;;;;;;-3.35;100.00;98767.93;102000;1373;22695;-31
2022/12/09 07:22:25;;;;;;;109.50;35.60;;;;;;;-3.24;100.00;98770.64;102020;1355;22615;-30
2022/12/09 07:24:50;;;;;;;102.20;41.90;;;;;;;-3.17;100.00;98771.58;102003;1355;22274;-30
2022/12/09 07:27:16;;;;;;;428.80;153.90;;;;;;;-3.14;100.00;98773.98;102040;1355;22160;-34
2022/12/09 07:29:41;;;;;;;;;;;;;;;-3.15;100.00;98776.70;101691;1346;22597;-33
2022/12/09 07:32:09;;;;;;;531.60;136.90;;;;;;;-3.13;100.00;98773.37;101849;1372;22252;-30
2022/12/09 07:34:35;;;;;;;357.80;96.90;;;;;;;-3.03;100.00;98771.52;101772;1346;22608;-30
2022/12/09 07:37:01;;;;;;;143.20;48.90;;;;;;;-2.79;100.00;98770.92;102042;1356;22212;-34
2022/12/09 07:39:26;;;;;;;86.70;35.80;;;;;;;-2.51;100.00;98775.55;102032;1356;22881;-30
2022/12/09 07:41:52;;;;;;;79.20;28.90;;;;;;;-2.25;100.00;98777.37;102046;1346;22296;-30
2022/12/09 07:44:18;;;;;;;127.00;44.90;;;;;;;-2.02;100.00;98781.23;101824;1356;369045;-30
2022/12/09 07:46:44;;;;;;;85.10;32.70;;;;;;;-1.83;100.00;98785.26;101602;1365;22181;-34
2022/12/09 07:49:09;;;;;;;153.70;47.70;;;;;;;-1.74;100.00;98785.52;101891;1361;22637;-34
2022/12/09 07:51:35;;;;;;;98.80;33.90;;;;;;;-1.66;100.00;98779.17;102069;1356;22647;-34
2022/12/09 07:54:01;;;;;;;97.90;38.70;;;;;;;-1.52;100.00;98777.09;102039;1356;22613;-31
2022/12/09 07:56:27;;;;;;;67.80;26.50;;;;;;;-1.35;100.00;98776.20;102038;1359;22340;-30
2022/12/09 07:58:53;;;;;;;101.90;33.10;;;;;;;-1.22;100.00;98778.61;102092;1356;22644;-31
2022/12/09 08:01:22;;;;;;;108.70;38.30;;;;;;;-1.26;100.00;98773.00;102077;1372;22222;-33
2022/12/09 08:03:48;;;;;;;107.40;38.30;;;;;;;-1.33;100.00;98760.80;101932;1364;23192;-34
2022/12/09 08:06:15;;;;;;;104.70;44.30;;;;;;;-1.36;100.00;98743.33;102174;1356;22312;-33
2022/12/09 08:08:41;;;;;;;147.50;54.90;;;;;;;-1.26;100.00;98732.23;102131;1372;22178;-30
2022/12/09 08:11:07;;;;;;;131.40;50.90;;;;;;;-1.08;100.00;98727.26;101806;1356;22605;-33
2022/12/09 08:13:33;;;;;;;166.90;55.90;;;;;;;-0.86;100.00;98724.70;101604;1357;22318;-30
2022/12/09 08:16:03;;;;;;;112.30;38.90;;;;;;;-0.68;100.00;98725.02;102095;1373;22305;-30
2022/12/09 08:18:29;;;;;;;147.20;51.60;;;;;;;-0.68;100.00;98714.60;102083;1361;22507;-30
2022/12/09 08:20:54;;;;;;;148.90;53.80;;;;;;;-0.66;100.00;98704.83;101995;1356;22187;-33
2022/12/09 08:23:20;;;;;;;137.60;52.00;;;;;;;-0.63;100.00;98700.68;102074;1356;22195;-34
2022/12/09 08:25:45;;;;;;;98.60;39.50;;;;;;;-0.53;100.00;98699.52;102155;1369;22592;-30
2022/12/09 08:28:11;;;;;;;103.30;42.70;;;;;;;-0.12;100.00;98698.48;101913;1372;22349;-29
2022/12/09 08:30:36;;;;;;;111.80;47.60;;;;;;;0.19;100.00;98694.99;102120;1365;22363;-30
2022/12/09 08:33:02;;;;;;;158.30;60.00;;;;;;;0.43;100.00;98688.93;102046;1356;22180;-30
2022/12/09 08:35:28;;;;;;;158.60;56.30;;;;;;;0.75;100.00;98680.70;102183;1372;22156;-34
2022/12/09 08:37:55;;;;;;;119.00;49.10;;;;;;;0.98;100.00;98671.58;102142;1355;22601;-34
2022/12/09 08:40:20;;;;;;;112.20;49.50;;;;;;;1.26;100.00;98665.79;101994;1352;24317;-30
2022/12/09 08:42:46;;;;;;;151.30;68.70;;;;;;;1.50;100.00;98664.32;102003;1355;22759;-30
2022/12/09 08:45:11;;;;;;;175.00;70.70;;;;;;;1.80;100.00;98669.73;102054;1356;22627;-30
2022/12/09 08:47:37;;;;;;;94.20;41.60;;;;;;;2.00;100.00;98664.31;102014;1372;22165;-34
2022/12/09 08:50:02;;;;;;;88.80;38.90;;;;;;;2.20;100.00;98665.52;102094;1371;22245;-34
2022/12/09 08:52:28;;;;;;;99.00;43.60;;;;;;;2.41;100.00;98669.54;102071;1355;22122;-31
2022/12/09 08:54:54;;;;;;;111.40;49.30;;;;;;;2.58;100.00;98672.12;101815;1373;22430;-35
2022/12/09 08:57:22;;;;;;;90.30;40.60;;;;;;;2.74;100.00;98660.70;102105;1352;22257;-31
2022/12/09 08:59:48;;;;;;;82.30;38.80;;;;;;;2.92;100.00;98655.45;101888;1367;22267;-31
2022/12/09 09:02:13;;;;;;;89.80;44.20;;;;;;;3.13;100.00;98656.89;102120;1361;22331;-35
2022/12/09 09:04:39;;;;;;;83.70;37.80;;;;;;;3.26;100.00;98664.81;102054;1356;22608;-31
2022/12/09 09:07:04;;;;;;;79.20;41.80;;;;;;;3.42;100.00;98662.67;101962;1359;22634;-31
2022/12/09 09:09:30;;;;;;;68.20;35.20;;;;;;;3.59;100.00;98662.78;102075;1373;22313;-35
2022/12/09 09:11:55;;;;;;;91.60;43.20;;;;;;;3.66;100.00;98649.09;102047;1355;22606;-35
2022/12/09 09:14:21;;;;;;;124.50;49.00;;;;;;;3.70;100.00;98643.44;102001;1356;22629;-35
2022/12/09 09:16:46;;;;;;;165.20;62.50;;;;;;;3.88;100.00;98643.02;101966;1356;24343;-35
2022/12/09 09:19:15;;;;;;;133.00;49.90;;;;;;;4.11;100.00;98638.80;102090;1355;22613;-31
2022/12/09 09:21:41;;;;;;;74.90;34.30;;;;;;;4.25;100.00;98632.95;102100;1355;22343;-35
2022/12/09 09:24:09;;;;;;;90.10;39.90;;;;;;;4.36;100.00;98633.20;102140;1356;22257;-32
2022/12/09 09:26:34;;;;;;;100.90;40.60;;;;;;;4.35;100.00;98629.02;102051;1356;22179;-35
2022/12/09 09:29:00;;;;;;;96.70;42.20;;;;;;;4.47;100.00;98620.44;101960;1346;22648;-35
2022/12/09 09:31:25;;;;;;;147.10;60.20;;;;;;;4.51;100.00;98619.20;101566;1356;22368;-31
2022/12/09 09:33:51;;;;;;;138.60;68.00;;;;;;;4.62;100.00;98619.70;102034;1356;22612;-35
2022/12/09 09:36:19;;;;;;;95.60;49.10;;;;;;;4.72;100.00;98616.80;102048;1365;22606;-32
2022/12/09 09:38:45;;;;;;;149.30;69.70;;;;;;;4.96;100.00;98617.07;102041;1358;23187;-31
2022/12/09 09:41:19;;;;;;;85.70;43.20;;;;;;;5.02;100.00;98612.66;102078;1356;22160;-35
2022/12/09 09:43:44;;;;;;;76.90;39.40;;;;;;;5.29;100.00;98621.31;102090;1356;22196;-32
2022/12/09 09:46:16;;;;;;;96.70;50.20;;;;;;;5.28;100.00;98625.67;101971;1362;22318;-31
2022/12/09 09:48:42;;;;;;;161.60;69.70;;;;;;;5.10;100.00;98614.11;102185;1373;22754;-31
2022/12/09 09:51:12;;;;;;;158.40;66.60;;;;;;;5.07;100.00;98610.37;102061;1355;22690;-35
2022/12/09 09:53:39;;;;;;;277.40;90.20;;;;;;;5.05;100.00;98608.01;101613;1373;22613;-32
2022/12/09 09:56:16;;;;;;;145.00;59.90;;;;;;;4.78;100.00;98605.14;102089;1349;22687;-31
2022/12/09 09:58:48;;;;;;;114.60;50.20;;;;;;;4.76;100.00;98611.42;101774;1373;22634;-34
2022/12/09 10:01:15;;;;;;;242.70;82.80;;;;;;;4.69;100.00;98611.34;101986;1356;22344;-31
2022/12/09 10:03:48;;;;;;;154.30;52.70;;;;;;;4.80;100.00;98605.05;102054;1373;22471;-31
2022/12/09 10:06:21;;;;;;;155.40;49.30;;;;;;;5.14;100.00;98615.02;102058;1373;23252;-31
2022/12/09 10:08:55;;;;;;;138.30;48.50;;;;;;;5.21;100.00;98598.83;102007;1364;22719;-31
2022/12/09 10:11:28;;;;;;;197.10;67.90;;;;;;;5.41;100.00;98586.02;102073;1373;22613;-35
2022/12/09 10:13:54;;;;;;;166.60;61.60;;;;;;;5.69;100.00;98581.84;102081;1356;22630;-31
2022/12/09 10:16:25;;;;;;;219.60;82.60;;;;;;;5.70;100.00;98584.48;102094;1372;22404;-34
2022/12/09 10:18:57;;;;;;;261.70;100.80;;;;;;;5.57;100.00;98588.33;101830;1355;22623;-34
2022/12/09 10:21:23;;;;;;;131.00;54.60;;;;;;;5.02;100.00;98586.91;101979;1356;22322;-34
2022/12/09 10:23:48;;;;;;;71.80;35.00;;;;;;;4.73;100.00;98582.66;102112;1373;22373;-34
2022/12/09 10:26:18;;;;;;;83.20;41.10;;;;;;;4.51;100.00;98585.08;101848;1352;22607;-34
2022/12/09 10:28:46;;;;;;;202.10;73.90;;;;;;;4.35;100.00;98580.50;102046;1355;22615;-30
2022/12/09 10:31:11;;;;;;;152.10;60.70;;;;;;;4.38;100.00;98581.78;102183;1356;22297;-34
2022/12/09 10:33:38;;;;;;;100.40;43.60;;;;;;;4.55;100.00;98587.27;101916;1367;22160;-31
2022/12/09 10:36:04;;;;;;;122.20;59.80;;;;;;;4.81;100.00;98589.39;101631;1374;22618;-31
2022/12/09 10:38:30;;;;;;;107.80;55.10;;;;;;;5.09;100.00;98594.88;102065;1356;22287;-34
2022/12/09 10:41:05;;;;;;;114.90;46.00;;;;;;;5.35;100.00;98596.77;102023;1356;22688;-31
2022/12/09 10:43:33;;;;;;;97.90;44.40;;;;;;;5.11;100.00;98581.52;102003;1356;22599;-34
2022/12/09 10:46:00;;;;;;;60.60;33.30;;;;;;;4.77;100.00;98579.00;102023;1346;22620;-34
2022/12/09 10:48:27;;;;;;;64.60;31.90;;;;;;;4.36;100.00;98580.89;102055;1373;22657;-34
2022/12/09 10:50:57;;;;;;;64.80;28.50;;;;;;;4.11;100.00;98583.08;102078;1355;23081;-31
2022/12/09 10:53:23;;;;;;;30.40;17.00;;;;;;;4.07;100.00;98578.63;101917;1355;22229;-34
2022/12/09 10:55:50;;;;;;;88.30;38.30;;;;;;;4.16;100.00;98575.98;101964;1359;22601;-30
2022/12/09 10:58:19;;;;;;;85.00;43.30;;;;;;;4.46;100.00;98573.41;102122;1362;22573;-34